Riverdance — C6CG3 — position and weather

sailwx.info

Track history (hours):
 
Tides and Currents Weather Stations Pressure Air Temp Water Temp Dewpoint Dewpoint Depression Visibility Wind Speed Wind Dir Waves Ship Positions

Riverdance

Operator: Crescent Marine Services Ltd

Last reported at 2018-Jun-23 18:09 UTC. Time now 2018-Jun-24 16:49 UTC.
Position N 57°34' W 001°34'.

Length 72 m; draft 5.7 m.

Type: Other ship. MMSI: 311000463.

Date/timePositionNaut miles runAvg speedWind from/ knotsBaromVisibWave heightAir tempDewpointWater temp
2018-Jun-23 18:09N 57°34' W 001°34'2 9.9
2018-Jun-23 17:59N 57°33' W 001°35'5 9.9
2018-Jun-23 17:30N 57°28' W 001°37'510.2
2018-Jun-23 17:00N 57°24' W 001°41'810.7
2018-Jun-23 16:15N 57°17' W 001°50'310.8
2018-Jun-23 16:00N 57°15' W 001°53'510.9
2018-Jun-23 15:30N 57°10' W 001°58'4 7.7
2018-Jun-23 15:00N 57°09' W 002°05'0 0.0
2018-Jun-23 14:29N 57°09' W 002°05'0 0.0
2018-Jun-23 13:56N 57°09' W 002°05'0 0.0
2018-Jun-23 13:29N 57°09' W 002°05'0 0.0
2018-Jun-23 12:59N 57°09' W 002°05'0 0.0
2018-Jun-23 12:29N 57°09' W 002°05'0 0.0
2018-Jun-23 11:59N 57°09' W 002°05'0 0.0
2018-Jun-23 11:29N 57°09' W 002°05'0 0.0
2018-Jun-23 10:59N 57°09' W 002°05'0 0.0
2018-Jun-23 10:29N 57°09' W 002°05'0 0.0
2018-Jun-23 09:59N 57°09' W 002°05'0 0.0
2018-Jun-23 09:29N 57°09' W 002°05'0 0.0
2018-Jun-23 08:59N 57°09' W 002°05'0 0.0
2018-Jun-23 08:29N 57°09' W 002°05'0 0.0
2018-Jun-23 07:59N 57°09' W 002°05'0 0.0
2018-Jun-23 07:29N 57°09' W 002°05'0 0.0
2018-Jun-23 06:59N 57°09' W 002°05'0 0.0
2018-Jun-23 06:26N 57°09' W 002°05'0 0.0
2018-Jun-23 05:59N 57°09' W 002°05'0 0.0
2018-Jun-23 05:29N 57°09' W 002°05'0 0.0
2018-Jun-23 04:59N 57°09' W 002°05'0 0.0
2018-Jun-23 04:29N 57°09' W 002°05'0 0.0
2018-Jun-23 03:59N 57°09' W 002°05'0 0.0
2018-Jun-23 03:29N 57°09' W 002°05'0 0.0
2018-Jun-23 02:59N 57°09' W 002°05'0 0.0
2018-Jun-23 02:29N 57°09' W 002°05'0 0.0
2018-Jun-23 01:59N 57°09' W 002°05'0 0.0
2018-Jun-23 01:29N 57°09' W 002°05'0 0.0
2018-Jun-23 00:59N 57°09' W 002°05'0 0.0
2018-Jun-23 00:29N 57°09' W 002°05'0 0.0
2018-Jun-22 23:59N 57°09' W 002°05'0 0.0
2018-Jun-22 23:29N 57°09' W 002°05'0 0.0
2018-Jun-22 22:59N 57°09' W 002°05'0 0.0
2018-Jun-22 22:29N 57°09' W 002°05'0 0.0
2018-Jun-22 21:59N 57°09' W 002°05'0 0.0
2018-Jun-22 21:29N 57°09' W 002°05'0 0.0
2018-Jun-22 20:59N 57°09' W 002°05'0 0.0
2018-Jun-22 20:29N 57°09' W 002°05'0 0.6
2018-Jun-22 20:00N 57°08' W 002°04'3 5.6
2018-Jun-22 19:30N 57°09' W 001°59'4 8.7
2018-Jun-22 19:00N 57°10' W 001°51'2 3.1
2018-Jun-22 18:30N 57°10' W 001°49'4 8.0
2018-Jun-22 18:00N 57°09' W 001°56'4 7.1
2018-Jun-22 17:30N 57°09' W 002°02'1 2.5
2018-Jun-22 16:58N 57°09' W 002°05'0 0.0
2018-Jun-22 16:28N 57°09' W 002°05'0 0.0
2018-Jun-22 15:55N 57°09' W 002°05'0 0.0
2018-Jun-22 15:28N 57°09' W 002°05'0 0.0
2018-Jun-22 14:58N 57°09' W 002°05'0 0.0
2018-Jun-22 14:28N 57°09' W 002°05'0 0.0
2018-Jun-22 13:58N 57°09' W 002°05'0 0.0
2018-Jun-22 13:28N 57°09' W 002°05'0 0.0
2018-Jun-22 12:58N 57°09' W 002°05'0 0.0
2018-Jun-22 12:28N 57°09' W 002°05'0 0.0
2018-Jun-22 11:58N 57°09' W 002°05'0 0.0
2018-Jun-22 11:28N 57°09' W 002°05'0 0.0
2018-Jun-22 10:58N 57°09' W 002°05'0 0.0
2018-Jun-22 10:28N 57°09' W 002°05'0 0.0
2018-Jun-22 09:58N 57°09' W 002°05'0 0.0
2018-Jun-22 09:28N 57°09' W 002°05'0 0.0
2018-Jun-22 08:58N 57°09' W 002°05'0 0.0
2018-Jun-22 08:28N 57°09' W 002°05'0 0.0
2018-Jun-22 07:58N 57°09' W 002°05'0 0.0
2018-Jun-22 07:28N 57°09' W 002°05'0 0.0
2018-Jun-22 06:58N 57°09' W 002°05'0 0.0
2018-Jun-22 06:28N 57°09' W 002°05'0 0.0
2018-Jun-22 05:58N 57°09' W 002°05'0 0.0
2018-Jun-22 05:28N 57°09' W 002°05'0 0.0
2018-Jun-22 04:55N 57°09' W 002°05'0 0.0
2018-Jun-22 04:28N 57°09' W 002°05'0 0.0
2018-Jun-22 03:58N 57°09' W 002°05'0 0.0
2018-Jun-22 03:28N 57°09' W 002°05'0 0.0
2018-Jun-22 02:58N 57°09' W 002°05'0 0.0
2018-Jun-22 02:28N 57°09' W 002°05'0 0.0
2018-Jun-22 01:58N 57°09' W 002°05'0 0.0
2018-Jun-22 01:28N 57°09' W 002°05'0 0.0
2018-Jun-22 00:58N 57°09' W 002°05'0 0.0
2018-Jun-22 00:28N 57°09' W 002°05'0 0.0
2018-Jun-21 23:58N 57°09' W 002°05'0 0.0
2018-Jun-21 23:28N 57°09' W 002°05'0 0.0
2018-Jun-21 22:58N 57°09' W 002°05'0 0.0
2018-Jun-21 22:28N 57°09' W 002°05'0 0.0
2018-Jun-21 21:55N 57°09' W 002°05'0 0.0
2018-Jun-21 21:28N 57°09' W 002°05'0 0.0
2018-Jun-21 20:58N 57°09' W 002°05'0 0.0
2018-Jun-21 20:28N 57°09' W 002°05'0 0.0
2018-Jun-21 19:58N 57°09' W 002°05'0 0.0
2018-Jun-21 19:28N 57°09' W 002°05'0 0.0
2018-Jun-21 18:58N 57°09' W 002°05'0 0.0
2018-Jun-21 18:28N 57°09' W 002°05'0 0.0
2018-Jun-21 17:58N 57°09' W 002°05'0 0.0
2018-Jun-21 17:28N 57°09' W 002°05'0 0.0
2018-Jun-21 16:55N 57°09' W 002°05'0 0.0
2018-Jun-21 16:28N 57°09' W 002°05'0 0.0
2018-Jun-21 15:58N 57°09' W 002°05'0 0.0
2018-Jun-21 15:28N 57°09' W 002°05'0 0.0
2018-Jun-21 14:58N 57°09' W 002°05'0 0.0
2018-Jun-21 14:28N 57°09' W 002°05'0 0.0
2018-Jun-21 13:58N 57°09' W 002°05'0 0.0
2018-Jun-21 13:28N 57°09' W 002°05'0 0.0
2018-Jun-21 12:58N 57°09' W 002°05'0 0.0
2018-Jun-21 12:28N 57°09' W 002°05'0 0.0
2018-Jun-21 11:58N 57°09' W 002°05'0 0.0
2018-Jun-21 11:28N 57°09' W 002°05'0 0.0
2018-Jun-21 10:58N 57°09' W 002°05'0 0.0
2018-Jun-21 10:28N 57°09' W 002°05'0 0.0
2018-Jun-21 09:58N 57°09' W 002°05'0 0.0
2018-Jun-21 09:28N 57°09' W 002°05'0 0.0
2018-Jun-21 08:58N 57°09' W 002°05'0 0.0
2018-Jun-21 08:28N 57°09' W 002°05'0 0.0
2018-Jun-21 07:58N 57°09' W 002°05'0 0.0
2018-Jun-21 07:28N 57°09' W 002°05'0 0.0
2018-Jun-21 06:58N 57°09' W 002°05'0 0.0
2018-Jun-21 06:28N 57°09' W 002°05'0 0.0
2018-Jun-21 05:58N 57°09' W 002°05'0 0.0
2018-Jun-21 05:28N 57°09' W 002°05'0 0.0
2018-Jun-21 04:58N 57°09' W 002°05'0 0.0
2018-Jun-21 04:28N 57°09' W 002°05'0 0.0
2018-Jun-21 03:58N 57°09' W 002°05'0 0.0
2018-Jun-21 03:28N 57°09' W 002°05'0 0.0
2018-Jun-21 02:58N 57°09' W 002°05'0 0.0
2018-Jun-21 02:28N 57°09' W 002°05'0 0.0
2018-Jun-21 01:58N 57°09' W 002°05'0 0.0
2018-Jun-21 01:28N 57°09' W 002°05'0 0.0
2018-Jun-21 00:58N 57°09' W 002°05'0 0.0
2018-Jun-21 00:28N 57°09' W 002°05'0 0.0
2018-Jun-20 23:58N 57°09' W 002°05'0 0.0
2018-Jun-20 23:28N 57°09' W 002°05'0 0.0
2018-Jun-20 22:58N 57°09' W 002°05'0 0.0
2018-Jun-20 22:28N 57°09' W 002°05'0 0.0
2018-Jun-20 21:58N 57°09' W 002°05'0 0.0
2018-Jun-20 21:28N 57°09' W 002°05'0 0.0
2018-Jun-20 20:58N 57°09' W 002°05'0 0.0
2018-Jun-20 20:28N 57°09' W 002°05'0 0.0
2018-Jun-20 19:58N 57°09' W 002°05'0 0.0
2018-Jun-20 19:28N 57°09' W 002°05'0 0.0
2018-Jun-20 18:58N 57°09' W 002°05'0 0.0
2018-Jun-20 18:28N 57°09' W 002°05'0 0.0
2018-Jun-20 17:58N 57°09' W 002°05'0 0.0
2018-Jun-20 17:28N 57°09' W 002°05'0 0.0
2018-Jun-20 16:58N 57°09' W 002°05'0 0.0
2018-Jun-20 16:28N 57°09' W 002°05'0 0.0
2018-Jun-20 15:58N 57°09' W 002°05'0 0.0
2018-Jun-20 15:28N 57°09' W 002°05'0 0.0
2018-Jun-20 14:58N 57°09' W 002°05'0 0.0
2018-Jun-20 14:28N 57°09' W 002°05'0 0.0
2018-Jun-20 13:58N 57°09' W 002°05'0 0.0
2018-Jun-20 13:28N 57°09' W 002°05'0 0.0
2018-Jun-20 12:58N 57°09' W 002°05'0 0.0
2018-Jun-20 12:28N 57°09' W 002°05'0 0.0
2018-Jun-20 11:58N 57°09' W 002°05'0 0.0
2018-Jun-20 11:28N 57°09' W 002°05'0 0.0
2018-Jun-20 10:58N 57°09' W 002°05'0 0.0
2018-Jun-20 10:28N 57°09' W 002°05'0 0.0
2018-Jun-20 09:58N 57°09' W 002°05'0 0.0
2018-Jun-20 09:28N 57°09' W 002°05'0 0.0
2018-Jun-20 08:58N 57°09' W 002°05'0 0.0
2018-Jun-20 08:28N 57°09' W 002°05'0 0.0
2018-Jun-20 07:58N 57°09' W 002°05'0 0.0
2018-Jun-20 07:28N 57°09' W 002°05'0 0.0
2018-Jun-20 06:58N 57°09' W 002°05'0 0.0
2018-Jun-20 06:28N 57°09' W 002°05'0 0.0
2018-Jun-20 05:58N 57°09' W 002°05'0 0.0
2018-Jun-20 05:28N 57°09' W 002°05'0 0.0
2018-Jun-20 04:58N 57°09' W 002°05'0 0.0
2018-Jun-20 04:28N 57°09' W 002°05'0 0.0
2018-Jun-20 03:58N 57°09' W 002°05'0 0.0
2018-Jun-20 03:28N 57°09' W 002°05'0 0.0
2018-Jun-20 02:58N 57°09' W 002°05'0 0.0
2018-Jun-20 02:28N 57°09' W 002°05'0 0.0
2018-Jun-20 01:58N 57°09' W 002°05'0 0.0
2018-Jun-20 01:28N 57°09' W 002°05'0 0.0
2018-Jun-20 00:58N 57°09' W 002°05'0 0.0
2018-Jun-20 00:28N 57°09' W 002°05'0 0.0
2018-Jun-19 23:58N 57°09' W 002°05'0 0.0
2018-Jun-19 23:28N 57°09' W 002°05'0 0.0
2018-Jun-19 22:58N 57°09' W 002°05'0 0.0
2018-Jun-19 22:25N 57°09' W 002°05'0 0.0
2018-Jun-19 21:58N 57°09' W 002°05'0 0.0
2018-Jun-19 21:28N 57°09' W 002°05'0 0.0
2018-Jun-19 20:58N 57°09' W 002°05'0 0.0
2018-Jun-19 20:28N 57°09' W 002°05'0 0.0
2018-Jun-19 19:58N 57°09' W 002°05'0 0.0
2018-Jun-19 19:28N 57°09' W 002°05'0 0.0
2018-Jun-19 18:58N 57°09' W 002°05'0 0.0
2018-Jun-19 18:28N 57°09' W 002°05'0 0.0
2018-Jun-19 17:58N 57°09' W 002°05'0 0.0
2018-Jun-19 17:28N 57°09' W 002°05'0 0.0
2018-Jun-19 16:58N 57°09' W 002°05'0 0.0
2018-Jun-19 16:28N 57°09' W 002°05'0 0.0
2018-Jun-19 15:58N 57°09' W 002°05'0 0.0
2018-Jun-19 15:31N 57°09' W 002°05'1 1.1
2018-Jun-19 15:00N 57°09' W 002°04'4 8.0
2018-Jun-19 14:30N 57°11' W 001°57'610.8
2018-Jun-19 13:58N 57°13' W 001°48'510.5
2018-Jun-19 13:30N 57°16' W 001°40'  
Track history (hours):
 
Tides and Currents Weather Stations Pressure Air Temp Water Temp Dewpoint Dewpoint Depression Visibility Wind Speed Wind Dir Waves Ship Positions

Riverdance

Operator: Crescent Marine Services Ltd

Last reported at 2018-Jun-23 18:09 UTC. Time now 2018-Jun-24 16:49 UTC.
Position N 57°34' W 001°34'.

Length 72 m; draft 5.7 m.

Type: Other ship. MMSI: 311000463.

Date/timePositionNaut miles runAvg speedWind from/ knotsBaromVisibWave heightAir tempDewpointWater temp
2018-Jun-23 18:09N 57°34' W 001°34'2 9.9
2018-Jun-23 17:59N 57°33' W 001°35'5 9.9
2018-Jun-23 17:30N 57°28' W 001°37'510.2
2018-Jun-23 17:00N 57°24' W 001°41'810.7
2018-Jun-23 16:15N 57°17' W 001°50'310.8
2018-Jun-23 16:00N 57°15' W 001°53'510.9
2018-Jun-23 15:30N 57°10' W 001°58'4 7.7
2018-Jun-23 15:00N 57°09' W 002°05'0 0.0
2018-Jun-23 14:29N 57°09' W 002°05'0 0.0
2018-Jun-23 13:56N 57°09' W 002°05'0 0.0
2018-Jun-23 13:29N 57°09' W 002°05'0 0.0
2018-Jun-23 12:59N 57°09' W 002°05'0 0.0
2018-Jun-23 12:29N 57°09' W 002°05'0 0.0
2018-Jun-23 11:59N 57°09' W 002°05'0 0.0
2018-Jun-23 11:29N 57°09' W 002°05'0 0.0
2018-Jun-23 10:59N 57°09' W 002°05'0 0.0
2018-Jun-23 10:29N 57°09' W 002°05'0 0.0
2018-Jun-23 09:59N 57°09' W 002°05'0 0.0
2018-Jun-23 09:29N 57°09' W 002°05'0 0.0
2018-Jun-23 08:59N 57°09' W 002°05'0 0.0
2018-Jun-23 08:29N 57°09' W 002°05'0 0.0
2018-Jun-23 07:59N 57°09' W 002°05'0 0.0
2018-Jun-23 07:29N 57°09' W 002°05'0 0.0
2018-Jun-23 06:59N 57°09' W 002°05'0 0.0
2018-Jun-23 06:26N 57°09' W 002°05'0 0.0
2018-Jun-23 05:59N 57°09' W 002°05'0 0.0
2018-Jun-23 05:29N 57°09' W 002°05'0 0.0
2018-Jun-23 04:59N 57°09' W 002°05'0 0.0
2018-Jun-23 04:29N 57°09' W 002°05'0 0.0
2018-Jun-23 03:59N 57°09' W 002°05'0 0.0
2018-Jun-23 03:29N 57°09' W 002°05'0 0.0
2018-Jun-23 02:59N 57°09' W 002°05'0 0.0
2018-Jun-23 02:29N 57°09' W 002°05'0 0.0
2018-Jun-23 01:59N 57°09' W 002°05'0 0.0
2018-Jun-23 01:29N 57°09' W 002°05'0 0.0
2018-Jun-23 00:59N 57°09' W 002°05'0 0.0
2018-Jun-23 00:29N 57°09' W 002°05'0 0.0
2018-Jun-22 23:59N 57°09' W 002°05'0 0.0
2018-Jun-22 23:29N 57°09' W 002°05'0 0.0
2018-Jun-22 22:59N 57°09' W 002°05'0 0.0
2018-Jun-22 22:29N 57°09' W 002°05'0 0.0
2018-Jun-22 21:59N 57°09' W 002°05'0 0.0
2018-Jun-22 21:29N 57°09' W 002°05'0 0.0
2018-Jun-22 20:59N 57°09' W 002°05'0 0.0
2018-Jun-22 20:29N 57°09' W 002°05'0 0.6
2018-Jun-22 20:00N 57°08' W 002°04'3 5.6
2018-Jun-22 19:30N 57°09' W 001°59'4 8.7
2018-Jun-22 19:00N 57°10' W 001°51'2 3.1
2018-Jun-22 18:30N 57°10' W 001°49'4 8.0
2018-Jun-22 18:00N 57°09' W 001°56'4 7.1
2018-Jun-22 17:30N 57°09' W 002°02'1 2.5
2018-Jun-22 16:58N 57°09' W 002°05'0 0.0
2018-Jun-22 16:28N 57°09' W 002°05'0 0.0
2018-Jun-22 15:55N 57°09' W 002°05'0 0.0
2018-Jun-22 15:28N 57°09' W 002°05'0 0.0
2018-Jun-22 14:58N 57°09' W 002°05'0 0.0
2018-Jun-22 14:28N 57°09' W 002°05'0 0.0
2018-Jun-22 13:58N 57°09' W 002°05'0 0.0
2018-Jun-22 13:28N 57°09' W 002°05'0 0.0
2018-Jun-22 12:58N 57°09' W 002°05'0 0.0
2018-Jun-22 12:28N 57°09' W 002°05'0 0.0
2018-Jun-22 11:58N 57°09' W 002°05'0 0.0
2018-Jun-22 11:28N 57°09' W 002°05'0 0.0
2018-Jun-22 10:58N 57°09' W 002°05'0 0.0
2018-Jun-22 10:28N 57°09' W 002°05'0 0.0
2018-Jun-22 09:58N 57°09' W 002°05'0 0.0
2018-Jun-22 09:28N 57°09' W 002°05'0 0.0
2018-Jun-22 08:58N 57°09' W 002°05'0 0.0
2018-Jun-22 08:28N 57°09' W 002°05'0 0.0
2018-Jun-22 07:58N 57°09' W 002°05'0 0.0
2018-Jun-22 07:28N 57°09' W 002°05'0 0.0
2018-Jun-22 06:58N 57°09' W 002°05'0 0.0
2018-Jun-22 06:28N 57°09' W 002°05'0 0.0
2018-Jun-22 05:58N 57°09' W 002°05'0 0.0
2018-Jun-22 05:28N 57°09' W 002°05'0 0.0
2018-Jun-22 04:55N 57°09' W 002°05'0 0.0
2018-Jun-22 04:28N 57°09' W 002°05'0 0.0
2018-Jun-22 03:58N 57°09' W 002°05'0 0.0
2018-Jun-22 03:28N 57°09' W 002°05'0 0.0
2018-Jun-22 02:58N 57°09' W 002°05'0 0.0
2018-Jun-22 02:28N 57°09' W 002°05'0 0.0
2018-Jun-22 01:58N 57°09' W 002°05'0 0.0
2018-Jun-22 01:28N 57°09' W 002°05'0 0.0
2018-Jun-22 00:58N 57°09' W 002°05'0 0.0
2018-Jun-22 00:28N 57°09' W 002°05'0 0.0
2018-Jun-21 23:58N 57°09' W 002°05'0 0.0
2018-Jun-21 23:28N 57°09' W 002°05'0 0.0
2018-Jun-21 22:58N 57°09' W 002°05'0 0.0
2018-Jun-21 22:28N 57°09' W 002°05'0 0.0
2018-Jun-21 21:55N 57°09' W 002°05'0 0.0
2018-Jun-21 21:28N 57°09' W 002°05'0 0.0
2018-Jun-21 20:58N 57°09' W 002°05'0 0.0
2018-Jun-21 20:28N 57°09' W 002°05'0 0.0
2018-Jun-21 19:58N 57°09' W 002°05'0 0.0
2018-Jun-21 19:28N 57°09' W 002°05'0 0.0
2018-Jun-21 18:58N 57°09' W 002°05'0 0.0
2018-Jun-21 18:28N 57°09' W 002°05'0 0.0
2018-Jun-21 17:58N 57°09' W 002°05'0 0.0
2018-Jun-21 17:28N 57°09' W 002°05'0 0.0
2018-Jun-21 16:55N 57°09' W 002°05'0 0.0
2018-Jun-21 16:28N 57°09' W 002°05'0 0.0
2018-Jun-21 15:58N 57°09' W 002°05'0 0.0
2018-Jun-21 15:28N 57°09' W 002°05'0 0.0
2018-Jun-21 14:58N 57°09' W 002°05'0 0.0
2018-Jun-21 14:28N 57°09' W 002°05'0 0.0
2018-Jun-21 13:58N 57°09' W 002°05'0 0.0
2018-Jun-21 13:28N 57°09' W 002°05'0 0.0
2018-Jun-21 12:58N 57°09' W 002°05'0 0.0
2018-Jun-21 12:28N 57°09' W 002°05'0 0.0
2018-Jun-21 11:58N 57°09' W 002°05'0 0.0
2018-Jun-21 11:28N 57°09' W 002°05'0 0.0
2018-Jun-21 10:58N 57°09' W 002°05'0 0.0
2018-Jun-21 10:28N 57°09' W 002°05'0 0.0
2018-Jun-21 09:58N 57°09' W 002°05'0 0.0
2018-Jun-21 09:28N 57°09' W 002°05'0 0.0
2018-Jun-21 08:58N 57°09' W 002°05'0 0.0
2018-Jun-21 08:28N 57°09' W 002°05'0 0.0
2018-Jun-21 07:58N 57°09' W 002°05'0 0.0
2018-Jun-21 07:28N 57°09' W 002°05'0 0.0
2018-Jun-21 06:58N 57°09' W 002°05'0 0.0
2018-Jun-21 06:28N 57°09' W 002°05'0 0.0
2018-Jun-21 05:58N 57°09' W 002°05'0 0.0
2018-Jun-21 05:28N 57°09' W 002°05'0 0.0
2018-Jun-21 04:58N 57°09' W 002°05'0 0.0
2018-Jun-21 04:28N 57°09' W 002°05'0 0.0
2018-Jun-21 03:58N 57°09' W 002°05'0 0.0
2018-Jun-21 03:28N 57°09' W 002°05'0 0.0
2018-Jun-21 02:58N 57°09' W 002°05'0 0.0
2018-Jun-21 02:28N 57°09' W 002°05'0 0.0
2018-Jun-21 01:58N 57°09' W 002°05'0 0.0
2018-Jun-21 01:28N 57°09' W 002°05'0 0.0
2018-Jun-21 00:58N 57°09' W 002°05'0 0.0
2018-Jun-21 00:28N 57°09' W 002°05'0 0.0
2018-Jun-20 23:58N 57°09' W 002°05'0 0.0
2018-Jun-20 23:28N 57°09' W 002°05'0 0.0
2018-Jun-20 22:58N 57°09' W 002°05'0 0.0
2018-Jun-20 22:28N 57°09' W 002°05'0 0.0
2018-Jun-20 21:58N 57°09' W 002°05'0 0.0
2018-Jun-20 21:28N 57°09' W 002°05'0 0.0
2018-Jun-20 20:58N 57°09' W 002°05'0 0.0
2018-Jun-20 20:28N 57°09' W 002°05'0 0.0
2018-Jun-20 19:58N 57°09' W 002°05'0 0.0
2018-Jun-20 19:28N 57°09' W 002°05'0 0.0
2018-Jun-20 18:58N 57°09' W 002°05'0 0.0
2018-Jun-20 18:28N 57°09' W 002°05'0 0.0
2018-Jun-20 17:58N 57°09' W 002°05'0 0.0
2018-Jun-20 17:28N 57°09' W 002°05'0 0.0
2018-Jun-20 16:58N 57°09' W 002°05'0 0.0
2018-Jun-20 16:28N 57°09' W 002°05'0 0.0
2018-Jun-20 15:58N 57°09' W 002°05'0 0.0
2018-Jun-20 15:28N 57°09' W 002°05'0 0.0
2018-Jun-20 14:58N 57°09' W 002°05'0 0.0
2018-Jun-20 14:28N 57°09' W 002°05'0 0.0
2018-Jun-20 13:58N 57°09' W 002°05'0 0.0
2018-Jun-20 13:28N 57°09' W 002°05'0 0.0
2018-Jun-20 12:58N 57°09' W 002°05'0 0.0
2018-Jun-20 12:28N 57°09' W 002°05'0 0.0
2018-Jun-20 11:58N 57°09' W 002°05'0 0.0
2018-Jun-20 11:28N 57°09' W 002°05'0 0.0
2018-Jun-20 10:58N 57°09' W 002°05'0 0.0
2018-Jun-20 10:28N 57°09' W 002°05'0 0.0
2018-Jun-20 09:58N 57°09' W 002°05'0 0.0
2018-Jun-20 09:28N 57°09' W 002°05'0 0.0
2018-Jun-20 08:58N 57°09' W 002°05'0 0.0
2018-Jun-20 08:28N 57°09' W 002°05'0 0.0
2018-Jun-20 07:58N 57°09' W 002°05'0 0.0
2018-Jun-20 07:28N 57°09' W 002°05'0 0.0
2018-Jun-20 06:58N 57°09' W 002°05'0 0.0
2018-Jun-20 06:28N 57°09' W 002°05'0 0.0
2018-Jun-20 05:58N 57°09' W 002°05'0 0.0
2018-Jun-20 05:28N 57°09' W 002°05'0 0.0
2018-Jun-20 04:58N 57°09' W 002°05'0 0.0
2018-Jun-20 04:28N 57°09' W 002°05'0 0.0
2018-Jun-20 03:58N 57°09' W 002°05'0 0.0
2018-Jun-20 03:28N 57°09' W 002°05'0 0.0
2018-Jun-20 02:58N 57°09' W 002°05'0 0.0
2018-Jun-20 02:28N 57°09' W 002°05'0 0.0
2018-Jun-20 01:58N 57°09' W 002°05'0 0.0
2018-Jun-20 01:28N 57°09' W 002°05'0 0.0
2018-Jun-20 00:58N 57°09' W 002°05'0 0.0
2018-Jun-20 00:28N 57°09' W 002°05'0 0.0
2018-Jun-19 23:58N 57°09' W 002°05'0 0.0
2018-Jun-19 23:28N 57°09' W 002°05'0 0.0
2018-Jun-19 22:58N 57°09' W 002°05'0 0.0
2018-Jun-19 22:25N 57°09' W 002°05'0 0.0
2018-Jun-19 21:58N 57°09' W 002°05'0 0.0
2018-Jun-19 21:28N 57°09' W 002°05'0 0.0
2018-Jun-19 20:58N 57°09' W 002°05'0 0.0
2018-Jun-19 20:28N 57°09' W 002°05'0 0.0
2018-Jun-19 19:58N 57°09' W 002°05'0 0.0
2018-Jun-19 19:28N 57°09' W 002°05'0 0.0
2018-Jun-19 18:58N 57°09' W 002°05'0 0.0
2018-Jun-19 18:28N 57°09' W 002°05'0 0.0
2018-Jun-19 17:58N 57°09' W 002°05'0 0.0
2018-Jun-19 17:28N 57°09' W 002°05'0 0.0
2018-Jun-19 16:58N 57°09' W 002°05'0 0.0
2018-Jun-19 16:28N 57°09' W 002°05'0 0.0
2018-Jun-19 15:58N 57°09' W 002°05'0 0.0
2018-Jun-19 15:31N 57°09' W 002°05'1 1.1
2018-Jun-19 15:00N 57°09' W 002°04'4 8.0
2018-Jun-19 14:30N 57°11' W 001°57'610.8
2018-Jun-19 13:58N 57°13' W 001°48'510.5
2018-Jun-19 13:30N 57°16' W 001°40'  

Dump ship's entire track history